Time;durP1;ratioP1;P1;durP2;ratioP2;P2;SDS_P1;SDS_P2;PMS_P1;PMS_P2;Temp;Humidity;BMP_temperature;BMP_pressure;BME280_temperature;BME280_humidity;BME280_pressure;Samples;Min_cycle;Max_cycle;Signal;HPM_P1;HPM_P2
2021/06/06 01:32:28;;;;;;;7.97;7.20;;;20.20;99.90;;;;;;5037671;23;20639;-57
2021/06/06 01:34:57;;;;;;;9.63;7.70;;;20.20;99.90;;;;;;5037392;23;20495;-57
2021/06/06 01:37:26;;;;;;;9.33;7.97;;;20.20;99.90;;;;;;5038731;28;20822;-57
2021/06/06 01:39:58;;;;;;;7.80;7.10;;;20.10;99.90;;;;;;5038588;28;20479;-57
2021/06/06 01:42:34;;;;;;;10.83;7.90;;;20.10;99.90;;;;;;5038532;28;20751;-55
2021/06/06 01:45:05;;;;;;;9.97;8.97;;;20.10;99.90;;;;;;5038365;28;20509;-57
2021/06/06 01:47:33;;;;;;;9.90;8.67;;;20.10;99.90;;;;;;5038439;28;20445;-57
2021/06/06 01:50:03;;;;;;;14.60;8.43;;;20.00;99.90;;;;;;5038639;28;20444;-56
2021/06/06 01:52:34;;;;;;;10.27;7.97;;;20.00;99.90;;;;;;5038218;28;20591;-50
2021/06/06 01:55:03;;;;;;;17.33;9.93;;;19.90;99.90;;;;;;5037673;28;20433;-50
2021/06/06 01:57:31;;;;;;;10.30;7.60;;;19.90;99.90;;;;;;5038361;28;20555;-56
2021/06/06 01:59:59;;;;;;;8.83;7.57;;;19.90;99.90;;;;;;5038520;28;20476;-57
2021/06/06 02:02:25;;;;;;;9.30;8.30;;;19.80;99.90;;;;;;5038152;28;20456;-57
2021/06/06 02:04:53;;;;;;;10.83;8.97;;;19.80;99.90;;;;;;5037975;28;20791;-59
2021/06/06 02:07:24;;;;;;;9.30;8.30;;;19.80;99.90;;;;;;5037944;28;20468;-57
2021/06/06 02:09:53;;;;;;;9.00;7.80;;;19.80;99.90;;;;;;5038250;28;20444;-57
2021/06/06 02:12:23;;;;;;;9.27;8.37;;;19.70;99.90;;;;;;5038101;28;20512;-57
2021/06/06 02:14:50;;;;;;;9.50;8.60;;;19.60;99.90;;;;;;5038035;28;20537;-57
2021/06/06 02:17:25;;;;;;;9.63;8.63;;;19.70;99.90;;;;;;5037869;28;20444;-56
2021/06/06 02:19:53;;;;;;;9.20;8.30;;;19.60;99.90;;;;;;5038034;28;20464;-56
2021/06/06 02:22:19;;;;;;;9.33;8.43;;;19.60;99.90;;;;;;5037651;28;20448;-52
2021/06/06 02:24:45;;;;;;;9.30;8.40;;;19.60;99.90;;;;;;5037663;28;20444;-49
2021/06/06 02:27:18;;;;;;;8.83;8.03;;;19.60;99.90;;;;;;5038097;28;20787;-57
2021/06/06 02:30:00;;;;;;;10.80;9.27;;;19.60;99.90;;;;;;5037634;28;20425;-55
2021/06/06 02:32:31;;;;;;;8.50;7.70;;;19.60;99.90;;;;;;5037484;28;20887;-52
2021/06/06 02:35:08;;;;;;;9.43;8.47;;;19.50;99.90;;;;;;5037812;28;20487;-51
2021/06/06 02:37:42;;;;;;;9.53;8.73;;;19.50;99.90;;;;;;5037998;28;20440;-55
2021/06/06 02:40:16;;;;;;;9.60;8.63;;;19.50;99.90;;;;;;5021957;28;20483;-53
2021/06/06 02:42:44;;;;;;;10.13;8.43;;;19.50;99.90;;;;;;5037908;28;20531;-56
2021/06/06 02:45:15;;;;;;;9.07;8.17;;;19.40;99.90;;;;;;5038285;28;20440;-56
2021/06/06 02:47:44;;;;;;;10.30;9.30;;;19.40;99.90;;;;;;5037484;28;20530;-56
2021/06/06 02:50:17;;;;;;;10.43;8.67;;;19.40;99.90;;;;;;5037152;28;20445;-55
2021/06/06 02:52:48;;;;;;;10.83;9.73;;;19.40;99.90;;;;;;5037946;28;20448;-57
2021/06/06 02:55:17;;;;;;;10.00;8.70;;;19.30;99.90;;;;;;5037995;28;20444;-57
2021/06/06 02:57:49;;;;;;;11.40;8.07;;;19.30;99.90;;;;;;5037582;28;20436;-57
2021/06/06 03:00:19;;;;;;;10.17;9.27;;;19.20;99.90;;;;;;5037642;28;20868;-57
2021/06/06 03:02:50;;;;;;;10.30;9.20;;;19.20;99.90;;;;;;5037965;28;20444;-57
2021/06/06 03:05:21;;;;;;;10.60;9.27;;;19.10;99.90;;;;;;5042290;28;20448;-54
2021/06/06 03:07:51;;;;;;;9.53;8.37;;;19.10;99.90;;;;;;5041833;28;20452;-50
2021/06/06 03:10:20;;;;;;;10.33;9.23;;;19.10;99.90;;;;;;5041628;28;20455;-55
2021/06/06 03:12:49;;;;;;;10.30;9.07;;;19.10;99.90;;;;;;5041506;28;20451;-54
2021/06/06 03:15:17;;;;;;;11.23;9.40;;;19.00;99.90;;;;;;5041584;28;20456;-50
2021/06/06 03:17:50;;;;;;;11.63;9.50;;;19.00;99.90;;;;;;5041356;28;20499;-58
2021/06/06 03:20:21;;;;;;;11.37;9.37;;;18.90;99.90;;;;;;5041836;28;20562;-57
2021/06/06 03:22:50;;;;;;;12.83;9.73;;;19.00;99.90;;;;;;5041938;28;20444;-54
2021/06/06 03:25:20;;;;;;;10.63;9.53;;;18.90;99.90;;;;;;5041359;28;20547;-57
2021/06/06 03:27:48;;;;;;;10.30;9.13;;;18.90;99.90;;;;;;5041331;28;20458;-53
2021/06/06 03:30:27;;;;;;;11.63;10.10;;;18.90;99.90;;;;;;5041063;28;20441;-57
2021/06/06 03:32:55;;;;;;;11.30;9.30;;;18.90;99.90;;;;;;5040892;28;20455;-57
2021/06/06 03:35:23;;;;;;;11.70;10.47;;;18.90;99.90;;;;;;5040766;28;20812;-57
2021/06/06 03:37:49;;;;;;;14.03;10.00;;;18.90;99.90;;;;;;5041327;28;20447;-57
2021/06/06 03:40:18;;;;;;;13.17;10.17;;;18.90;99.90;;;;;;5040944;28;20533;-54
2021/06/06 03:42:44;;;;;;;11.43;9.90;;;18.90;99.90;;;;;;5040541;28;20452;-56
2021/06/06 03:45:12;;;;;;;11.83;10.40;;;18.90;99.90;;;;;;5041133;28;20505;-57
2021/06/06 03:47:39;;;;;;;11.70;9.63;;;18.90;99.90;;;;;;5041421;28;20506;-57
2021/06/06 03:50:10;;;;;;;10.90;9.67;;;18.90;99.90;;;;;;5041277;28;20440;-57
2021/06/06 03:52:39;;;;;;;10.43;9.00;;;18.90;99.90;;;;;;5041432;28;20459;-56
2021/06/06 03:55:07;;;;;;;10.57;9.47;;;18.90;99.90;;;;;;5040691;28;20448;-57
2021/06/06 03:57:34;;;;;;;11.60;9.60;;;18.90;99.90;;;;;;5040863;28;20773;-54
2021/06/06 04:00:04;;;;;;;10.33;9.33;;;18.80;99.90;;;;;;5039999;28;20993;-54
2021/06/06 04:02:30;;;;;;;14.90;10.63;;;18.90;99.90;;;;;;5040983;28;20526;-57
2021/06/06 04:04:56;;;;;;;11.00;10.00;;;18.80;99.90;;;;;;5040985;28;20444;-51
2021/06/06 04:07:22;;;;;;;11.20;10.07;;;18.90;99.90;;;;;;5040348;28;20456;-57
2021/06/06 04:09:50;;;;;;;13.80;9.60;;;18.80;99.90;;;;;;5040457;28;20447;-55
2021/06/06 04:12:16;;;;;;;12.60;10.40;;;18.90;99.90;;;;;;5041489;28;20471;-57
2021/06/06 04:14:42;;;;;;;9.57;8.63;;;18.90;99.90;;;;;;5040350;28;20439;-57
2021/06/06 04:17:08;;;;;;;11.03;10.00;;;18.90;99.90;;;;;;5040458;28;20452;-58
2021/06/06 04:19:34;;;;;;;10.70;9.60;;;18.90;99.90;;;;;;5040412;28;20448;-57
2021/06/06 04:22:00;;;;;;;11.93;10.80;;;18.90;99.90;;;;;;5040229;28;20487;-56
2021/06/06 04:24:27;;;;;;;11.37;9.93;;;18.90;99.90;;;;;;5039836;28;20451;-57
2021/06/06 04:26:54;;;;;;;14.53;9.97;;;18.90;99.90;;;;;;5040191;28;20432;-57
2021/06/06 04:29:20;;;;;;;12.60;10.80;;;19.00;99.90;;;;;;5040706;28;20444;-57
2021/06/06 04:31:47;;;;;;;13.37;12.03;;;19.00;99.90;;;;;;5040037;28;20985;-57
2021/06/06 04:34:13;;;;;;;15.93;11.10;;;19.00;99.90;;;;;;5039599;28;20973;-53
2021/06/06 04:36:39;;;;;;;12.67;11.37;;;19.10;99.90;;;;;;5040043;28;20447;-57
2021/06/06 04:39:06;;;;;;;10.83;9.83;;;19.10;99.90;;;;;;5039964;28;20907;-55
2021/06/06 04:41:32;;;;;;;13.47;12.00;;;19.10;99.90;;;;;;5039983;28;20484;-55
2021/06/06 04:44:00;;;;;;;11.47;9.80;;;19.10;99.90;;;;;;5040149;28;20451;-57
2021/06/06 04:46:26;;;;;;;11.63;10.50;;;19.10;99.90;;;;;;5039862;28;21138;-57
2021/06/06 04:48:53;;;;;;;12.33;11.13;;;19.20;99.90;;;;;;5040040;28;20459;-57
2021/06/06 04:51:23;;;;;;;11.97;10.87;;;19.20;99.90;;;;;;5040286;28;20452;-56
2021/06/06 04:53:50;;;;;;;11.60;10.50;;;19.30;99.90;;;;;;5039541;28;20455;-57
2021/06/06 04:56:18;;;;;;;11.80;10.70;;;19.30;99.90;;;;;;5040116;28;20444;-56
2021/06/06 04:58:45;;;;;;;12.83;11.53;;;19.40;99.90;;;;;;5039724;28;20464;-57
2021/06/06 05:01:14;;;;;;;11.27;10.10;;;19.40;99.90;;;;;;5039357;28;20954;-55
2021/06/06 05:03:41;;;;;;;17.93;12.33;;;19.40;99.90;;;;;;5040081;28;20455;-53
2021/06/06 05:06:07;;;;;;;13.30;12.00;;;19.30;99.90;;;;;;5039526;28;20973;-51
2021/06/06 05:08:33;;;;;;;12.17;10.67;;;19.50;99.90;;;;;;5039426;28;20445;-52
2021/06/06 05:10:59;;;;;;;13.40;12.00;;;19.50;99.90;;;;;;5039766;28;20448;-57
2021/06/06 05:13:26;;;;;;;12.53;11.33;;;19.60;99.90;;;;;;5040143;28;20470;-56
2021/06/06 05:15:54;;;;;;;12.50;11.30;;;19.60;99.90;;;;;;5039851;28;20798;-54
2021/06/06 05:18:23;;;;;;;12.90;11.60;;;19.70;99.90;;;;;;5039088;28;20460;-55
2021/06/06 05:20:50;;;;;;;12.37;11.20;;;19.70;99.90;;;;;;5039603;28;20484;-53
2021/06/06 05:23:18;;;;;;;12.80;11.60;;;19.70;99.90;;;;;;5039325;28;20459;-52
2021/06/06 05:25:45;;;;;;;13.60;12.20;;;19.80;99.90;;;;;;5038796;28;20480;-57
2021/06/06 05:28:14;;;;;;;12.33;10.83;;;19.80;99.90;;;;;;5039031;28;20815;-55
2021/06/06 05:30:41;;;;;;;13.80;12.40;;;19.90;99.90;;;;;;5038890;28;20479;-57
2021/06/06 05:33:08;;;;;;;14.33;12.53;;;20.00;99.90;;;;;;5039017;28;20456;-57
2021/06/06 05:35:37;;;;;;;17.53;12.60;;;20.00;99.90;;;;;;5039781;28;20440;-51
2021/06/06 05:38:06;;;;;;;14.53;13.10;;;20.10;99.90;;;;;;5038679;28;20444;-57
2021/06/06 05:40:33;;;;;;;14.40;12.90;;;20.20;99.90;;;;;;5039144;28;20486;-55
2021/06/06 05:43:01;;;;;;;14.00;12.60;;;20.20;99.90;;;;;;5039004;28;20463;-56
2021/06/06 05:45:28;;;;;;;14.43;12.93;;;20.30;99.90;;;;;;5038613;28;20538;-57
2021/06/06 05:47:55;;;;;;;16.50;12.93;;;20.30;99.90;;;;;;5038727;28;20501;-57
2021/06/06 05:50:24;;;;;;;14.40;13.13;;;20.40;99.90;;;;;;5039414;28;20779;-51
2021/06/06 05:52:52;;;;;;;14.93;13.57;;;20.50;99.90;;;;;;5038929;28;20498;-55
2021/06/06 05:55:20;;;;;;;14.43;12.90;;;20.50;99.90;;;;;;5038474;28;20739;-50
2021/06/06 05:57:47;;;;;;;20.50;13.07;;;20.60;99.90;;;;;;5038914;28;20492;-57
2021/06/06 06:00:16;;;;;;;14.80;12.77;;;20.70;99.90;;;;;;5038076;28;20954;-57
2021/06/06 06:02:42;;;;;;;14.63;13.10;;;20.70;99.90;;;;;;5038678;28;20794;-57
2021/06/06 06:05:09;;;;;;;16.13;14.53;;;20.80;99.90;;;;;;5038521;28;20436;-57
2021/06/06 06:07:36;;;;;;;18.80;13.83;;;20.90;99.90;;;;;;5038052;28;20479;-56
2021/06/06 06:10:05;;;;;;;17.50;13.27;;;20.90;99.90;;;;;;5038110;28;20445;-57
2021/06/06 06:12:31;;;;;;;14.53;13.27;;;21.00;99.90;;;;;;5038276;28;20455;-55
2021/06/06 06:14:58;;;;;;;15.50;14.10;;;21.10;99.90;;;;;;5038867;28;20514;-57
2021/06/06 06:17:24;;;;;;;14.83;13.43;;;21.10;99.90;;;;;;5038153;28;20802;-57
2021/06/06 06:19:50;;;;;;;14.30;13.00;;;21.20;99.90;;;;;;5037422;28;20460;-58
2021/06/06 06:22:16;;;;;;;21.60;13.43;;;21.30;99.90;;;;;;5037463;28;20452;-57
2021/06/06 06:24:42;;;;;;;17.10;15.30;;;21.40;99.90;;;;;;5037370;28;20452;-55
2021/06/06 06:27:10;;;;;;;15.60;14.10;;;21.50;99.90;;;;;;5037922;28;20527;-56
2021/06/06 06:29:36;;;;;;;15.43;13.97;;;21.50;99.90;;;;;;5038140;28;20919;-57
2021/06/06 06:32:04;;;;;;;17.70;14.90;;;21.70;99.90;;;;;;5037407;28;20498;-52
2021/06/06 06:34:30;;;;;;;15.50;13.87;;;21.80;99.90;;;;;;5037161;28;20484;-58
2021/06/06 06:36:57;;;;;;;13.93;12.50;;;21.90;99.90;;;;;;5037601;28;20448;-51
2021/06/06 06:39:23;;;;;;;14.57;13.17;;;22.00;99.90;;;;;;5037174;28;20435;-57
2021/06/06 06:41:49;;;;;;;13.10;12.00;;;22.10;99.90;;;;;;5037591;28;20878;-54
2021/06/06 06:44:16;;;;;;;14.77;13.37;;;22.30;99.90;;;;;;5038220;28;20483;-55
2021/06/06 06:46:42;;;;;;;13.77;12.43;;;22.40;99.90;;;;;;5036636;28;20447;-55
2021/06/06 06:49:09;;;;;;;14.13;12.83;;;22.50;99.90;;;;;;5036379;28;20798;-55
2021/06/06 06:51:35;;;;;;;15.43;13.87;;;22.60;99.90;;;;;;5036334;28;20461;-55
2021/06/06 06:54:01;;;;;;;13.53;12.13;;;22.80;99.90;;;;;;5035663;28;20436;-54
2021/06/06 06:56:29;;;;;;;14.57;13.17;;;23.00;99.90;;;;;;5036099;28;20440;-54
2021/06/06 06:58:57;;;;;;;13.60;12.50;;;23.20;99.90;;;;;;5036331;28;20456;-57
2021/06/06 07:01:25;;;;;;;14.03;12.83;;;23.50;99.90;;;;;;5036094;28;20476;-54
2021/06/06 07:03:51;;;;;;;12.70;11.50;;;23.60;99.90;;;;;;5035526;28;20451;-52
2021/06/06 07:06:19;;;;;;;13.73;12.43;;;23.80;99.90;;;;;;5035539;28;20452;-52
2021/06/06 07:08:46;;;;;;;14.00;12.20;;;24.10;99.90;;;;;;5035569;28;20523;-53
2021/06/06 07:11:15;;;;;;;13.33;12.03;;;24.40;99.90;;;;;;5035316;28;20931;-53
2021/06/06 07:13:42;;;;;;;13.13;11.83;;;24.70;99.90;;;;;;5035679;28;20452;-54
2021/06/06 07:16:09;;;;;;;13.00;11.83;;;24.90;99.90;;;;;;5035712;28;20523;-55
2021/06/06 07:18:38;;;;;;;13.10;12.00;;;25.60;99.90;;;;;;5035080;28;20448;-51
2021/06/06 07:21:11;;;;;;;12.40;11.30;;;27.00;99.90;;;;;;5035300;28;20476;-55
2021/06/06 07:23:37;;;;;;;14.63;13.20;;;29.00;99.20;;;;;;5034180;28;20452;-55
2021/06/06 07:26:09;;;;;;;14.23;13.03;;;30.80;91.40;;;;;;5018589;28;20451;-55
2021/06/06 07:28:36;;;;;;;11.03;10.07;;;32.30;82.70;;;;;;5035423;28;20448;-55
2021/06/06 07:31:04;;;;;;;11.67;10.67;;;33.90;70.70;;;;;;5035146;28;20502;-55
2021/06/06 07:33:33;;;;;;;11.07;9.97;;;35.50;61.60;;;;;;5035893;28;20480;-55
2021/06/06 07:36:01;;;;;;;11.57;10.47;;;36.50;55.20;;;;;;5035802;28;20495;-55
2021/06/06 07:38:28;;;;;;;10.57;9.77;;;36.80;52.00;;;;;;5035232;28;20467;-55
2021/06/06 07:40:56;;;;;;;10.90;9.80;;;36.70;49.10;;;;;;5017817;28;20937;-53
2021/06/06 07:43:22;;;;;;;11.27;10.27;;;36.50;49.60;;;;;;5034642;28;20899;-55
2021/06/06 07:45:49;;;;;;;10.90;10.10;;;36.20;50.20;;;;;;5034610;28;20510;-54
2021/06/06 07:48:16;;;;;;;10.87;9.87;;;36.10;49.60;;;;;;5052489;28;20456;-55
2021/06/06 07:50:46;;;;;;;9.77;8.97;;;36.10;48.50;;;;;;5056961;28;20448;-56
2021/06/06 07:53:15;;;;;;;10.07;9.17;;;36.40;47.90;;;;;;5057411;28;20933;-54
2021/06/06 07:55:42;;;;;;;11.47;10.57;;;37.00;46.90;;;;;;5058971;28;20443;-55
2021/06/06 07:58:08;;;;;;;10.53;9.73;;;37.50;45.60;;;;;;5059091;28;20772;-53
2021/06/06 08:00:37;;;;;;;10.43;9.53;;;37.80;44.80;;;;;;5058825;28;20509;-55
2021/06/06 08:08:17;;;;;;;9.43;8.77;;;38.80;42.00;;;;;;5311152;23;20531;-53
2021/06/06 08:10:46;;;;;;;10.17;9.03;;;38.60;42.00;;;;;;4978007;28;20526;-52
2021/06/06 08:13:13;;;;;;;11.30;10.37;;;38.40;42.70;;;;;;4977942;28;20920;-51
2021/06/06 08:15:40;;;;;;;9.50;8.83;;;38.50;42.20;;;;;;4978146;28;20451;-54
2021/06/06 08:18:08;;;;;;;8.43;7.83;;;38.70;41.20;;;;;;4978174;28;20447;-54
2021/06/06 08:20:38;;;;;;;10.77;8.70;;;38.90;39.40;;;;;;4976570;28;20491;-53
2021/06/06 08:23:08;;;;;;;8.97;8.23;;;38.70;38.80;;;;;;4973262;28;20447;-55
2021/06/06 08:25:37;;;;;;;9.10;8.20;;;38.40;39.80;;;;;;4961201;28;20528;-55
2021/06/06 08:28:04;;;;;;;9.13;8.30;;;38.10;39.90;;;;;;4967901;28;20471;-53
2021/06/06 08:30:34;;;;;;;9.23;8.50;;;38.00;40.30;;;;;;4977864;28;20455;-56
2021/06/06 08:33:00;;;;;;;9.03;8.33;;;38.40;40.10;;;;;;4974482;28;20471;-54
2021/06/06 14:02:26;;;;;;;6.43;5.93;;;30.40;40.20;;;;;;5340278;23;20484;-48
2021/06/06 14:04:52;;;;;;;7.07;6.47;;;30.30;40.80;;;;;;4956704;29;20471;-54
2021/06/06 14:07:19;;;;;;;6.40;5.80;;;30.20;39.50;;;;;;4956393;29;20475;-48
2021/06/06 14:09:45;;;;;;;7.17;6.27;;;30.30;39.10;;;;;;4956699;29;20447;-50
2021/06/06 16:20:31;;;;;;;12.20;9.47;;;28.70;45.70;;;;;;5976241;23;20550;-50
2021/06/06 16:23:01;;;;;;;10.10;6.70;;;28.60;45.90;;;;;;5026064;28;20470;-52
2021/06/06 16:25:29;;;;;;;7.90;7.10;;;28.50;46.10;;;;;;5030066;28;20886;-54
2021/06/06 16:27:56;;;;;;;10.53;7.80;;;28.40;46.50;;;;;;5031549;28;20455;-53
2021/06/06 16:30:24;;;;;;;7.53;6.70;;;28.30;46.90;;;;;;5036546;28;20452;-53
2021/06/06 16:32:51;;;;;;;7.47;6.80;;;28.10;47.30;;;;;;5036251;28;20443;-53
2021/06/06 16:35:18;;;;;;;7.23;6.53;;;28.00;47.10;;;;;;5036552;28;20533;-49
2021/06/06 16:37:46;;;;;;;8.27;7.57;;;27.90;47.20;;;;;;5036237;28;20472;-52
2021/06/06 16:40:13;;;;;;;12.13;8.10;;;27.80;47.60;;;;;;5036371;28;20460;-54
2021/06/06 16:42:39;;;;;;;18.17;9.30;;;27.70;47.90;;;;;;5025076;28;20487;-55
2021/06/06 16:45:09;;;;;;;9.90;8.57;;;27.70;48.60;;;;;;5026492;28;20436;-54
2021/06/06 16:47:37;;;;;;;9.20;8.30;;;27.60;48.20;;;;;;5028872;28;20447;-53
2021/06/06 16:50:04;;;;;;;9.83;8.90;;;27.60;48.10;;;;;;5033820;28;20483;-51
2021/06/06 16:52:32;;;;;;;9.93;8.97;;;27.60;48.40;;;;;;5030368;28;20442;-51
2021/06/06 16:55:02;;;;;;;8.00;6.90;;;27.50;48.70;;;;;;5026327;28;20445;-51
2021/06/06 16:57:28;;;;;;;8.50;7.60;;;27.50;48.40;;;;;;5021400;28;20787;-55
2021/06/06 16:59:54;;;;;;;8.30;7.50;;;27.50;48.70;;;;;;5016239;28;20476;-55
2021/06/06 17:02:22;;;;;;;11.60;8.03;;;27.40;48.40;;;;;;5016178;28;20512;-54
2021/06/06 17:04:48;;;;;;;10.53;8.57;;;27.40;49.00;;;;;;5016498;28;20445;-55
2021/06/06 17:07:15;;;;;;;10.77;8.00;;;27.30;49.30;;;;;;5016124;28;20461;-54
2021/06/06 17:09:41;;;;;;;10.60;7.97;;;27.30;48.90;;;;;;5015719;28;20488;-56
2021/06/06 17:12:09;;;;;;;8.73;7.70;;;27.30;48.90;;;;;;5016116;28;20510;-54
2021/06/06 17:14:35;;;;;;;10.17;8.23;;;27.30;49.50;;;;;;5015790;28;20460;-55
2021/06/06 17:17:02;;;;;;;9.47;8.03;;;27.20;49.30;;;;;;5015900;28;20797;-52
2021/06/06 17:19:28;;;;;;;14.87;10.23;;;27.20;49.80;;;;;;5015643;28;20530;-52
2021/06/06 17:21:55;;;;;;;11.23;7.77;;;27.20;50.00;;;;;;5014442;28;20492;-51
2021/06/06 17:24:21;;;;;;;8.37;7.53;;;27.10;49.90;;;;;;5015424;28;20791;-55
2021/06/06 17:26:47;;;;;;;9.13;8.17;;;27.20;49.90;;;;;;5015564;28;20452;-57
2021/06/06 17:29:16;;;;;;;8.97;8.17;;;27.10;50.10;;;;;;5015616;28;20931;-53
2021/06/06 17:31:44;;;;;;;11.60;10.20;;;27.20;50.30;;;;;;5015496;28;20951;-52
2021/06/06 17:34:11;;;;;;;12.47;9.47;;;27.10;50.50;;;;;;5015490;28;20453;-55
2021/06/06 17:36:38;;;;;;;10.40;9.37;;;27.10;51.30;;;;;;5015572;28;20780;-55
2021/06/06 17:39:07;;;;;;;8.97;8.07;;;27.00;51.80;;;;;;5013403;28;20954;-51
2021/06/06 17:41:35;;;;;;;8.63;7.90;;;27.00;52.50;;;;;;5015054;28;20476;-52
2021/06/06 17:44:02;;;;;;;13.87;8.40;;;27.00;52.90;;;;;;5015151;28;20444;-52
2021/06/06 17:46:29;;;;;;;10.33;9.30;;;26.90;53.40;;;;;;5015023;28;20430;-53
2021/06/06 17:48:56;;;;;;;10.20;9.20;;;26.80;53.70;;;;;;5015093;28;20986;-53
2021/06/06 17:51:23;;;;;;;11.27;9.20;;;26.70;54.10;;;;;;5014989;28;21126;-54
2021/06/06 17:53:49;;;;;;;19.93;9.93;;;26.70;54.40;;;;;;5015261;28;20453;-53
2021/06/06 17:56:15;;;;;;;10.43;9.43;;;26.60;54.50;;;;;;5014873;28;20449;-53
2021/06/06 17:58:43;;;;;;;24.33;14.57;;;26.50;54.70;;;;;;5015166;28;20975;-54
2021/06/06 18:01:12;;;;;;;12.20;8.87;;;26.40;54.70;;;;;;5014687;28;20473;-51
2021/06/06 18:03:39;;;;;;;13.37;11.57;;;26.40;54.20;;;;;;5026377;28;20444;-50
2021/06/06 18:06:06;;;;;;;10.93;9.00;;;26.30;54.70;;;;;;5033051;28;20923;-51
2021/06/06 18:08:32;;;;;;;13.10;8.97;;;26.20;54.70;;;;;;5014825;28;20452;-50
2021/06/06 18:11:01;;;;;;;9.40;7.90;;;26.20;55.00;;;;;;5014712;28;20449;-48
2021/06/06 18:13:29;;;;;;;8.80;7.90;;;26.10;54.90;;;;;;5014677;28;20464;-51
2021/06/06 18:15:59;;;;;;;10.20;7.70;;;26.10;54.80;;;;;;5014738;28;20984;-53
2021/06/06 18:18:25;;;;;;;8.07;7.27;;;26.00;55.10;;;;;;5015070;28;20551;-51
2021/06/06 18:20:53;;;;;;;8.67;7.50;;;26.00;55.30;;;;;;5014459;28;20473;-53
2021/06/06 18:23:20;;;;;;;15.83;9.00;;;25.90;55.10;;;;;;5014822;28;20471;-55
2021/06/06 18:25:50;;;;;;;11.87;9.97;;;25.80;55.30;;;;;;5014397;28;20452;-49
2021/06/06 18:28:18;;;;;;;12.10;7.20;;;25.80;55.50;;;;;;5014172;28;20438;-48
2021/06/06 18:30:45;;;;;;;7.57;6.87;;;25.80;56.00;;;;;;5015006;28;20456;-50
2021/06/06 18:33:11;;;;;;;8.83;6.47;;;25.70;55.90;;;;;;5007866;28;20481;-49
2021/06/06 18:35:38;;;;;;;7.80;7.10;;;25.70;56.00;;;;;;5019728;28;20452;-53
2021/06/06 18:38:06;;;;;;;8.67;7.13;;;25.70;56.00;;;;;;5033723;28;20443;-51
2021/06/06 18:40:36;;;;;;;7.43;6.73;;;25.60;56.30;;;;;;5028316;28;20923;-50
2021/06/06 18:43:02;;;;;;;8.27;7.40;;;25.60;56.60;;;;;;5019552;28;20475;-50
2021/06/06 18:45:30;;;;;;;8.10;7.40;;;25.50;56.30;;;;;;5021773;28;20951;-52
2021/06/06 18:47:56;;;;;;;8.70;7.37;;;25.50;55.90;;;;;;5025035;28;20444;-50
2021/06/06 18:50:25;;;;;;;6.70;6.10;;;25.40;55.60;;;;;;5025069;28;20523;-52
2021/06/06 18:52:52;;;;;;;7.10;6.33;;;25.40;55.40;;;;;;5034271;28;20794;-54
2021/06/06 18:55:24;;;;;;;7.70;6.97;;;25.30;55.20;;;;;;5033905;28;20452;-52
2021/06/06 18:57:51;;;;;;;6.30;5.63;;;25.20;55.00;;;;;;5033896;28;20488;-50
2021/06/06 19:00:26;;;;;;;8.40;6.60;;;25.20;54.80;;;;;;5026802;28;20543;-49
2021/06/06 19:02:53;;;;;;;7.93;6.93;;;25.10;54.80;;;;;;4996750;28;20503;-54
2021/06/06 19:05:19;;;;;;;6.43;5.83;;;25.10;55.30;;;;;;4996340;28;20448;-47
2021/06/06 19:07:46;;;;;;;6.60;5.60;;;25.00;55.10;;;;;;5012184;28;20522;-51
2021/06/06 19:10:13;;;;;;;11.27;8.80;;;25.00;54.80;;;;;;5008535;28;20449;-51
2021/06/06 19:12:40;;;;;;;16.20;13.03;;;24.90;54.70;;;;;;5012507;28;20757;-50
2021/06/06 19:15:09;;;;;;;12.53;7.67;;;24.90;54.50;;;;;;5012575;28;20947;-50
2021/06/06 19:17:35;;;;;;;9.03;8.13;;;24.80;54.90;;;;;;5012916;28;20475;-51
2021/06/06 19:20:02;;;;;;;8.33;7.03;;;24.70;54.60;;;;;;5012499;28;20566;-46
2021/06/06 19:22:28;;;;;;;7.20;6.50;;;24.70;55.50;;;;;;5011131;28;20493;-52
2021/06/06 19:24:54;;;;;;;6.70;6.10;;;24.70;55.10;;;;;;5012133;28;20934;-52
2021/06/06 19:27:23;;;;;;;8.17;5.90;;;24.60;55.10;;;;;;5012109;28;20540;-46
2021/06/06 19:29:50;;;;;;;6.90;5.53;;;24.60;55.10;;;;;;5012781;28;20536;-50
2021/06/06 19:32:20;;;;;;;7.17;6.50;;;24.60;54.90;;;;;;5012397;28;20465;-51
2021/06/06 19:34:47;;;;;;;7.47;5.70;;;24.50;54.60;;;;;;5012320;28;20532;-49
2021/06/06 19:37:14;;;;;;;6.33;5.73;;;24.50;54.50;;;;;;5013013;28;20448;-47
2021/06/06 19:39:40;;;;;;;10.53;5.50;;;24.50;54.40;;;;;;5008648;28;20473;-51
2021/06/06 19:42:08;;;;;;;5.50;4.83;;;24.50;54.20;;;;;;5011259;28;20491;-49
2021/06/06 19:44:35;;;;;;;6.10;5.57;;;24.40;54.00;;;;;;5012384;28;20499;-48
2021/06/06 19:47:06;;;;;;;8.73;6.07;;;24.40;54.40;;;;;;5016102;28;20444;-48
2021/06/06 19:49:34;;;;;;;7.77;5.90;;;24.40;54.30;;;;;;5016695;28;20467;-48
2021/06/06 19:52:00;;;;;;;12.83;6.47;;;24.40;54.20;;;;;;5011561;28;20441;-48
2021/06/06 19:54:26;;;;;;;12.13;6.27;;;24.40;53.70;;;;;;5015907;28;20441;-54
2021/06/06 19:56:52;;;;;;;6.00;5.40;;;24.40;53.70;;;;;;5015783;28;20453;-48
2021/06/06 19:59:19;;;;;;;31.40;21.63;;;24.30;53.30;;;;;;5015105;28;20449;-51
2021/06/06 20:01:45;;;;;;;10.03;8.40;;;24.30;53.60;;;;;;5014928;28;20492;-51
2021/06/06 20:04:12;;;;;;;6.30;5.30;;;24.30;53.50;;;;;;5013803;28;20931;-46
2021/06/06 20:06:39;;;;;;;12.63;5.50;;;24.30;53.10;;;;;;5011471;28;20467;-48
2021/06/06 20:09:08;;;;;;;5.53;4.37;;;24.20;53.00;;;;;;5015784;28;20449;-49
2021/06/06 20:11:40;;;;;;;14.50;9.50;;;24.20;52.40;;;;;;5014907;28;20523;-52
2021/06/06 20:14:07;;;;;;;34.73;20.17;;;24.20;52.00;;;;;;5014565;28;20481;-49
2021/06/06 20:16:34;;;;;;;10.43;7.07;;;24.10;51.60;;;;;;5013897;28;20450;-51
2021/06/06 20:19:00;;;;;;;5.60;4.70;;;24.10;51.50;;;;;;5015852;28;20469;-50
2021/06/06 20:21:31;;;;;;;7.43;5.87;;;24.00;50.90;;;;;;5014358;28;20503;-50
2021/06/06 20:23:58;;;;;;;5.40;4.57;;;24.00;51.10;;;;;;5009909;28;20456;-48
2021/06/06 20:26:25;;;;;;;6.20;4.40;;;24.00;50.90;;;;;;5018506;28;20444;-46
2021/06/06 20:28:51;;;;;;;31.20;18.63;;;23.90;50.50;;;;;;5018438;28;20469;-49
2021/06/06 20:31:21;;;;;;;10.17;6.50;;;23.90;51.10;;;;;;5014336;28;20958;-47
2021/06/06 20:33:59;;;;;;;6.00;4.77;;;23.90;50.10;;;;;;5007728;28;20453;-48
2021/06/06 20:36:30;;;;;;;7.10;5.00;;;23.90;50.10;;;;;;5015798;28;20777;-46
2021/06/06 20:38:58;;;;;;;4.90;4.30;;;23.80;49.80;;;;;;5011958;28;20449;-49
2021/06/06 20:41:26;;;;;;;12.57;6.57;;;23.80;49.90;;;;;;5015589;28;21108;-49
2021/06/06 20:43:54;;;;;;;5.23;4.73;;;23.70;49.60;;;;;;5011515;28;20464;-46
2021/06/06 20:46:22;;;;;;;4.73;3.90;;;23.70;49.80;;;;;;5015675;28;20445;-47
2021/06/06 20:48:48;;;;;;;6.40;4.40;;;23.60;49.60;;;;;;5015430;28;20515;-50
2021/06/06 20:51:15;;;;;;;9.30;6.50;;;23.60;49.80;;;;;;5019025;28;20772;-48
2021/06/06 20:53:42;;;;;;;8.10;5.17;;;23.60;50.20;;;;;;5020998;28;20540;-50
2021/06/06 20:56:09;;;;;;;5.77;5.00;;;23.50;50.00;;;;;;5017162;28;20464;-48
2021/06/06 20:58:36;;;;;;;4.60;4.20;;;23.50;50.40;;;;;;5017999;28;20447;-47
2021/06/06 21:01:03;;;;;;;4.33;3.93;;;23.40;50.70;;;;;;5018270;28;20803;-50
2021/06/06 21:03:33;;;;;;;6.00;3.83;;;23.40;50.40;;;;;;5014551;28;20472;-48
2021/06/06 21:06:03;;;;;;;7.43;4.30;;;23.30;50.50;;;;;;5020704;28;20449;-48
2021/06/06 21:08:29;;;;;;;6.50;4.40;;;23.30;51.00;;;;;;5017076;28;20538;-49
2021/06/06 21:10:57;;;;;;;7.13;4.03;;;23.20;51.10;;;;;;5008374;28;20915;-47
2021/06/06 21:13:24;;;;;;;9.83;3.83;;;23.20;52.60;;;;;;5013531;28;20456;-49
2021/06/06 21:15:50;;;;;;;6.30;3.20;;;23.10;51.10;;;;;;5014209;28;20448;-48
2021/06/06 21:18:20;;;;;;;3.80;3.43;;;23.10;50.50;;;;;;5014849;28;20473;-44
2021/06/06 21:20:46;;;;;;;3.77;3.37;;;23.10;50.60;;;;;;5016246;28;20476;-49
2021/06/06 21:23:17;;;;;;;3.57;3.10;;;23.00;50.50;;;;;;5013094;28;20500;-47
2021/06/06 21:25:47;;;;;;;4.60;3.50;;;22.90;50.50;;;;;;5015370;28;20457;-51
2021/06/06 21:28:15;;;;;;;33.63;19.03;;;22.90;50.70;;;;;;5015269;28;20452;-50
2021/06/06 21:30:41;;;;;;;7.73;4.20;;;22.80;50.70;;;;;;5015527;28;20780;-50
2021/06/06 21:33:11;;;;;;;3.90;3.37;;;22.70;50.70;;;;;;5015133;28;20441;-48
2021/06/06 21:35:37;;;;;;;6.10;3.10;;;22.60;51.00;;;;;;5015237;28;20551;-47
2021/06/06 21:38:05;;;;;;;4.00;3.60;;;22.60;51.00;;;;;;5015219;28;20791;-47
2021/06/06 21:40:32;;;;;;;6.60;3.80;;;22.60;51.50;;;;;;5014061;28;20536;-44
2021/06/06 21:43:00;;;;;;;5.50;3.83;;;22.60;51.30;;;;;;5015155;28;20547;-46
2021/06/06 21:45:28;;;;;;;3.97;3.47;;;22.60;52.00;;;;;;5015222;28;20759;-44
2021/06/06 21:47:54;;;;;;;5.57;3.73;;;22.50;50.90;;;;;;5014926;28;20453;-45
2021/06/06 21:50:22;;;;;;;5.90;3.60;;;22.50;51.20;;;;;;5014964;28;20460;-45
2021/06/06 21:52:48;;;;;;;3.57;3.13;;;22.40;51.20;;;;;;5014928;28;20831;-48